New Carlisle, IN

12:46 PM EDT on May 05, 2015 (GMT -0400)
Bendix Woods County Park | | Change Station
CLOSE
Current Station
Personal Weather Station
Location: New Carlisle, IN
Elevation: 835 ft
Nearby Weather Stations

Elev 835 ft 41.66 °N, 86.51 °W | Updated 20 seconds ago

Rain
Rain
61.3 °F
Feels Like 61.3 °F
N
0.0
Wind Variable Wind from North
Gusts 5.0 mph

Today
High -- | Low -- °F
--% Chance of Precip.
Yesterday
High -- | Low -- °F
Precip. -- in
6:37 AM 8:48 PM
Full, 97% visible
Pressure 30.23 in
Visibility 2.0 miles
Clouds Overcast 300 ft
Dew Point 61 °F
Humidity 100%
Rainfall 0.48 in
Snow Depth Not available.
UV 3 out of 12
Pollen .50 out of 12
Air Quality Not available.
Flu Activity Local Activity
METAR KSBN 051554Z 05004KT 2SM -RA BR OVC003 16/14 A3023 RMK AO2 RAB1456 SLP237 P0001 T01560144

More Conditions Fewer Conditions

Pressure 30.23 in
Visibility 2.0 miles
Clouds Overcast 300 ft
Dew Point 61 °F
Humidity 100%
Rainfall 0.48 in
Snow Depth Not available.
UV 3 out of 12
Pollen .50 out of 12
Air Quality Not available.
Flu Activity Local Activity
METAR KSBN 051554Z 05004KT 2SM -RA BR OVC003 16/14 A3023 RMK AO2 RAB1456 SLP237 P0001 T01560144

More Conditions Fewer Conditions

10-Day Weather Forecast

Almanac

Astronomy

May. 05, 2015 Rise Set
Actual Time
Civil Twilight
Nautical Twilight
Astronomical Twilight
Moon
Length of Visible Light
Length of Day
Tomorrow will be .
, % of the Moon is Illuminated

Today's Extremes

State Highs State Lows

Community

WunderPhotos

Upload Photos

1,818,937 photos uploaded!

WunderBlogs® & News

Nearby

Air Quality

  Air Quality AQ Index Pollutant
Not available.

Snow Depth

Station Depth Elevation

Earthquake Activity

City Distance Mag. Time & Date
Minimum magnitude displayed is 2.5.

Coastal Water Temperatures

Place Temperature

Stations

Nearby Weather Stations

Station Location Temp. Windchill Dew Point Humidity Wind Precip. Elev Updated Type